Time;durP1;ratioP1;P1;durP2;ratioP2;P2;SDS_P1;SDS_P2;PMS_P1;PMS_P2;Temp;Humidity;BMP_temperature;BMP_pressure;BME280_temperature;BME280_humidity;BME280_pressure;Samples;Min_cycle;Max_cycle;Signal;HPM_P1;HPM_P2
2023/05/11 00:02:14;;;;;;;1.93;0.80;;;12.60;99.90;;;;;;10481753;28;20226;-66
2023/05/11 00:07:14;;;;;;;0.80;0.73;;;12.60;99.90;;;;;;10474836;28;20219;-67
2023/05/11 00:12:16;;;;;;;1.57;0.97;;;12.60;99.90;;;;;;10476574;28;20280;-66
2023/05/11 00:17:18;;;;;;;2.60;1.10;;;12.60;99.90;;;;;;10476245;28;20219;-66
2023/05/11 00:22:18;;;;;;;2.47;0.80;;;12.50;99.90;;;;;;10467053;28;20254;-67
2023/05/11 00:27:19;;;;;;;1.33;0.80;;;12.50;99.90;;;;;;10461384;28;20314;-67
2023/05/11 00:32:23;;;;;;;1.83;0.87;;;12.50;99.90;;;;;;10476947;28;20223;-69
2023/05/11 00:37:23;;;;;;;1.07;0.70;;;12.50;99.90;;;;;;10474339;28;20216;-66
2023/05/11 00:42:24;;;;;;;0.80;0.80;;;12.50;99.90;;;;;;10481702;28;20234;-67
2023/05/11 00:47:28;;;;;;;1.40;0.80;;;12.50;99.90;;;;;;10479573;28;20693;-67
2023/05/11 00:52:29;;;;;;;2.63;1.10;;;12.50;99.90;;;;;;10463069;28;20262;-68
2023/05/11 00:57:32;;;;;;;2.20;0.80;;;12.40;99.90;;;;;;10464807;28;20242;-66
2023/05/11 01:02:32;;;;;;;1.03;0.80;;;12.40;99.90;;;;;;10461329;28;20691;-67
2023/05/11 01:07:42;;;;;;;3.03;0.90;;;12.40;99.90;;;;;;10483334;28;20220;-67
2023/05/11 01:12:58;;;;;;;1.33;1.10;;;12.40;99.90;;;;;;10460008;28;20858;-67
2023/05/11 01:18:15;;;;;;;1.00;0.77;;;12.30;99.90;;;;;;10474590;28;20219;-68
2023/05/11 01:23:34;;;;;;;3.23;1.00;;;12.20;99.90;;;;;;10463500;28;20774;-67
2023/05/11 01:29:10;;;;;;;1.33;0.90;;;12.20;99.90;;;;;;10465680;28;20588;-70
2023/05/11 01:34:23;;;;;;;3.03;1.03;;;12.10;99.90;;;;;;10465052;28;20230;-67
2023/05/11 01:39:44;;;;;;;1.23;0.90;;;12.10;99.90;;;;;;10482983;28;20289;-68
2023/05/11 01:44:50;;;;;;;1.60;0.90;;;12.00;99.90;;;;;;10473878;28;20700;-67
2023/05/11 01:49:53;;;;;;;1.80;0.97;;;12.00;99.90;;;;;;10469350;28;20238;-69
2023/05/11 01:54:55;;;;;;;5.97;1.10;;;11.90;99.90;;;;;;10462655;28;20626;-70
2023/05/11 01:59:57;;;;;;;2.27;1.90;;;11.90;99.90;;;;;;10478920;28;20212;-68
2023/05/11 02:04:59;;;;;;;2.00;1.60;;;11.90;99.90;;;;;;10463278;28;20237;-69
2023/05/11 02:10:01;;;;;;;1.60;1.50;;;11.90;99.90;;;;;;10482167;28;20691;-69
2023/05/11 02:15:03;;;;;;;1.77;1.10;;;11.90;99.90;;;;;;10462160;28;20216;-68
2023/05/11 02:20:06;;;;;;;2.10;1.20;;;11.90;99.90;;;;;;10492577;28;20207;-67
2023/05/11 02:25:08;;;;;;;3.60;1.10;;;11.90;99.90;;;;;;10475712;28;20222;-67
2023/05/11 02:30:09;;;;;;;5.03;1.10;;;11.80;99.90;;;;;;10476994;28;20191;-67
2023/05/11 02:35:17;;;;;;;3.30;1.30;;;11.80;99.90;;;;;;10463039;28;20203;-67
2023/05/11 02:40:22;;;;;;;1.77;1.37;;;11.70;99.90;;;;;;10478170;28;20214;-67
2023/05/11 02:45:24;;;;;;;3.03;1.80;;;11.70;99.90;;;;;;10459345;28;20222;-66
2023/05/11 02:50:27;;;;;;;3.40;1.70;;;11.70;99.90;;;;;;10464270;28;20231;-68
2023/05/11 03:07:21;;;;;;;1.93;1.60;;;11.60;99.90;;;;;;10476316;28;20215;-67
2023/05/11 03:12:22;;;;;;;2.60;1.90;;;11.60;99.90;;;;;;10475363;28;20687;-66
2023/05/11 03:17:23;;;;;;;2.87;1.70;;;11.50;99.90;;;;;;10476062;28;20291;-66
2023/05/11 03:22:26;;;;;;;3.60;2.07;;;11.50;99.90;;;;;;10482361;28;20927;-68
2023/05/11 03:27:28;;;;;;;2.20;1.80;;;11.50;99.90;;;;;;10462456;28;20227;-67
2023/05/11 03:32:28;;;;;;;4.20;1.60;;;11.50;99.90;;;;;;10481241;28;20296;-67
2023/05/11 03:37:32;;;;;;;4.97;2.00;;;11.40;99.90;;;;;;10471490;28;20219;-67
2023/05/11 03:42:34;;;;;;;2.23;1.43;;;11.40;99.90;;;;;;10474029;28;20302;-69
2023/05/11 03:47:38;;;;;;;2.60;1.90;;;11.40;99.90;;;;;;10463492;28;20319;-68
2023/05/11 03:52:40;;;;;;;3.43;2.07;;;11.40;99.90;;;;;;10479298;28;20298;-68
2023/05/11 03:57:41;;;;;;;3.97;1.90;;;11.40;99.90;;;;;;10460789;28;20258;-69
2023/05/11 04:02:42;;;;;;;1.97;1.87;;;11.40;99.90;;;;;;10486694;28;20222;-67
2023/05/11 04:07:43;;;;;;;2.80;2.00;;;11.40;99.90;;;;;;10474889;28;20223;-68
2023/05/11 04:12:43;;;;;;;4.73;2.00;;;11.50;99.90;;;;;;10486396;28;20242;-68
2023/05/11 04:17:44;;;;;;;3.70;2.40;;;11.50;99.90;;;;;;10484447;28;20220;-68
2023/05/11 04:22:47;;;;;;;5.23;2.60;;;11.60;99.90;;;;;;10459096;28;20903;-66
2023/05/11 04:27:48;;;;;;;3.97;1.97;;;11.60;99.90;;;;;;10484434;28;20233;-68
2023/05/11 04:32:48;;;;;;;2.60;2.10;;;11.70;99.90;;;;;;10470865;28;20223;-68
2023/05/11 04:37:49;;;;;;;3.63;2.30;;;11.80;99.90;;;;;;10483828;28;20221;-66
2023/05/11 04:42:49;;;;;;;4.00;1.97;;;11.90;99.90;;;;;;10487065;28;20649;-69
2023/05/11 04:47:50;;;;;;;2.23;1.97;;;12.10;99.90;;;;;;10478474;28;20297;-69
2023/05/11 04:52:51;;;;;;;4.70;2.43;;;12.30;99.90;;;;;;10477960;28;20894;-68
2023/05/11 04:57:51;;;;;;;3.90;2.50;;;12.40;99.90;;;;;;10470868;28;20223;-67
2023/05/11 05:02:52;;;;;;;6.37;2.17;;;12.60;99.90;;;;;;10479810;28;20218;-67
2023/05/11 05:07:52;;;;;;;3.97;2.53;;;12.70;99.90;;;;;;10476650;28;20344;-67
2023/05/11 05:12:53;;;;;;;3.73;2.83;;;12.80;99.90;;;;;;10468056;28;20292;-70
2023/05/11 05:17:54;;;;;;;6.47;2.77;;;12.90;99.90;;;;;;10474258;28;20567;-69
2023/05/11 05:22:54;;;;;;;3.57;2.53;;;13.00;99.90;;;;;;10469568;28;20228;-66
2023/05/11 05:27:55;;;;;;;5.53;2.50;;;13.10;99.90;;;;;;10472829;28;20669;-66
2023/05/11 05:32:56;;;;;;;3.70;2.50;;;13.10;99.90;;;;;;10485713;28;20771;-67
2023/05/11 05:37:56;;;;;;;6.40;2.90;;;13.30;99.90;;;;;;10452391;28;20664;-65
2023/05/11 05:42:57;;;;;;;3.83;2.20;;;13.40;99.90;;;;;;10471127;28;20706;-67
2023/05/11 05:47:59;;;;;;;3.20;2.40;;;13.50;99.90;;;;;;10484288;28;21100;-69
2023/05/11 05:53:00;;;;;;;2.63;2.30;;;13.70;99.90;;;;;;10475141;28;20669;-70
2023/05/11 05:58:00;;;;;;;3.23;2.30;;;13.90;99.90;;;;;;10479423;28;20222;-68
2023/05/11 06:03:01;;;;;;;5.50;2.60;;;14.10;99.90;;;;;;10467225;28;20219;-69
2023/05/11 06:08:01;;;;;;;2.00;1.70;;;14.20;99.90;;;;;;10475300;28;20245;-70
2023/05/11 06:13:02;;;;;;;7.50;2.77;;;14.30;99.90;;;;;;10472356;28;20284;-67
2023/05/11 06:18:04;;;;;;;4.57;2.10;;;14.20;99.90;;;;;;10479197;28;20223;-67
2023/05/11 06:23:04;;;;;;;4.73;2.20;;;14.30;99.90;;;;;;10470366;28;20223;-68
2023/05/11 06:28:05;;;;;;;4.33;2.20;;;14.40;99.90;;;;;;10468126;28;20227;-68
2023/05/11 06:33:06;;;;;;;3.17;2.27;;;14.50;99.90;;;;;;10472073;28;20258;-68
2023/05/11 06:38:06;;;;;;;3.47;2.10;;;14.70;99.90;;;;;;10472947;28;20219;-71
2023/05/11 06:43:07;;;;;;;3.80;2.10;;;14.90;99.90;;;;;;10478367;28;20584;-71
2023/05/11 06:48:08;;;;;;;5.93;2.47;;;14.90;99.90;;;;;;10468800;28;20314;-71
2023/05/11 06:53:09;;;;;;;3.20;2.30;;;14.90;99.90;;;;;;10476954;28;20223;-70
2023/05/11 06:58:10;;;;;;;3.03;2.37;;;14.80;99.90;;;;;;10475662;28;20339;-71
2023/05/11 07:03:11;;;;;;;4.60;2.50;;;15.00;99.90;;;;;;10468825;28;20223;-70
2023/05/11 07:08:11;;;;;;;4.67;2.63;;;15.20;99.90;;;;;;10483879;28;20224;-70
2023/05/11 07:13:12;;;;;;;3.40;1.80;;;15.40;99.90;;;;;;10469336;28;20228;-70
2023/05/11 07:18:12;;;;;;;3.60;2.17;;;15.80;99.90;;;;;;10481965;28;20587;-70
2023/05/11 07:23:13;;;;;;;3.87;1.63;;;15.90;99.90;;;;;;10469636;28;20229;-68
2023/05/11 07:28:13;;;;;;;4.10;1.87;;;16.20;99.90;;;;;;10474147;28;20241;-69
2023/05/11 07:33:14;;;;;;;1.60;1.50;;;16.30;99.90;;;;;;10481929;28;20222;-69
2023/05/11 07:38:15;;;;;;;4.50;1.50;;;16.20;99.90;;;;;;10482488;28;20802;-69
2023/05/11 07:43:15;;;;;;;4.00;1.73;;;16.10;99.90;;;;;;10469267;28;20388;-70
2023/05/11 07:48:16;;;;;;;3.97;1.90;;;16.20;99.90;;;;;;10472397;28;20228;-70
2023/05/11 07:53:17;;;;;;;4.13;2.40;;;16.30;99.90;;;;;;10485044;28;20311;-70
2023/05/11 07:58:18;;;;;;;3.50;2.00;;;16.40;99.90;;;;;;10464529;28;20218;-69
2023/05/11 08:03:18;;;;;;;4.10;2.30;;;16.50;99.90;;;;;;10472631;28;20218;-71
2023/05/11 08:08:19;;;;;;;5.27;2.80;;;16.80;99.90;;;;;;10480214;28;20213;-70
2023/05/11 08:13:19;;;;;;;5.57;2.43;;;17.30;99.90;;;;;;10480978;28;20220;-71
2023/05/11 08:18:21;;;;;;;4.67;2.90;;;17.60;99.90;;;;;;10472069;28;20223;-69
2023/05/11 08:23:21;;;;;;;4.37;2.90;;;17.70;99.90;;;;;;10465838;28;20221;-69
2023/05/11 08:28:22;;;;;;;3.97;2.20;;;17.90;99.90;;;;;;10474428;28;20213;-70
2023/05/11 08:33:23;;;;;;;6.87;3.30;;;18.00;99.90;;;;;;10480832;28;20292;-71
2023/05/11 08:38:23;;;;;;;7.03;3.00;;;18.00;99.90;;;;;;10475563;28;20236;-70
2023/05/11 08:43:25;;;;;;;5.97;3.00;;;17.90;99.90;;;;;;10473590;28;20331;-70
2023/05/11 08:48:25;;;;;;;5.30;3.90;;;17.90;99.90;;;;;;10479926;28;20225;-71
2023/05/11 08:53:27;;;;;;;2.80;2.43;;;18.00;99.90;;;;;;10477169;28;20697;-71
2023/05/11 08:58:29;;;;;;;4.43;3.10;;;18.10;99.90;;;;;;10469675;28;20220;-70
2023/05/11 09:03:33;;;;;;;5.00;3.90;;;18.40;99.90;;;;;;10470063;28;20256;-71
2023/05/11 09:08:37;;;;;;;4.40;3.03;;;18.60;99.90;;;;;;10478266;28;20714;-72
2023/05/11 09:13:37;;;;;;;3.50;3.17;;;18.60;99.90;;;;;;10476177;28;20228;-70
2023/05/11 09:18:48;;;;;;;4.60;4.20;;;18.70;99.90;;;;;;10483981;28;20217;-69
2023/05/11 09:23:49;;;;;;;3.47;2.83;;;18.60;99.90;;;;;;10485177;28;20247;-70
2023/05/11 09:28:57;;;;;;;4.37;3.73;;;18.70;99.90;;;;;;10474497;28;20293;-71
2023/05/11 09:34:14;;;;;;;5.63;3.77;;;18.50;99.90;;;;;;10463404;28;20320;-71
2023/05/11 09:39:18;;;;;;;3.07;2.77;;;18.30;99.90;;;;;;10462641;28;20216;-71
2023/05/11 09:44:18;;;;;;;5.67;3.97;;;18.10;99.90;;;;;;10473487;28;20218;-71
2023/05/11 09:49:28;;;;;;;7.97;4.60;;;18.00;99.90;;;;;;10478680;28;20221;-70
2023/05/11 09:54:28;;;;;;;4.40;4.00;;;18.00;99.90;;;;;;10474066;28;20217;-70
2023/05/11 09:59:40;;;;;;;6.93;4.23;;;18.00;99.90;;;;;;10474396;28;20228;-70
2023/05/11 10:04:41;;;;;;;4.70;4.30;;;18.00;99.90;;;;;;10481827;28;20233;-70
2023/05/11 10:09:41;;;;;;;7.30;5.97;;;18.10;99.90;;;;;;10480801;28;20246;-70
2023/05/11 10:14:42;;;;;;;8.80;7.57;;;18.10;99.90;;;;;;10480867;28;20785;-70
2023/05/11 10:19:43;;;;;;;7.33;5.80;;;18.00;99.90;;;;;;10482422;28;20264;-70
2023/05/11 10:24:45;;;;;;;8.70;5.17;;;17.70;99.90;;;;;;10496859;28;20822;-71
2023/05/11 10:29:47;;;;;;;12.93;7.70;;;17.80;99.90;;;;;;10480500;28;20315;-70
2023/05/11 10:34:49;;;;;;;6.10;5.43;;;17.90;99.90;;;;;;10484978;28;20450;-71
2023/05/11 10:39:51;;;;;;;6.30;5.27;;;17.90;99.90;;;;;;10481380;28;20308;-70
2023/05/11 10:45:10;;;;;;;6.37;4.93;;;17.90;99.90;;;;;;10480011;28;20228;-73
2023/05/11 10:50:36;;;;;;;6.43;5.30;;;17.80;99.90;;;;;;10479107;28;20789;-70
2023/05/11 10:55:50;;;;;;;7.03;5.10;;;18.10;99.90;;;;;;10476140;28;20247;-70
2023/05/11 11:01:36;;;;;;;7.03;5.70;;;18.70;99.90;;;;;;10479531;28;20297;-70
2023/05/11 11:06:40;;;;;;;6.60;5.80;;;19.20;99.90;;;;;;10483976;28;20228;-71
2023/05/11 11:11:45;;;;;;;7.80;5.40;;;19.40;99.90;;;;;;10472620;28;20261;-72
2023/05/11 11:17:16;;;;;;;5.30;4.77;;;19.50;99.90;;;;;;10478781;28;20218;-72
2023/05/11 11:22:40;;;;;;;5.47;4.90;;;19.50;99.90;;;;;;10480323;28;20218;-72
2023/05/11 11:27:40;;;;;;;5.30;4.80;;;19.70;99.90;;;;;;10482734;28;20222;-72
2023/05/11 11:32:41;;;;;;;6.80;6.10;;;20.00;99.90;;;;;;10481960;28;20229;-72
2023/05/11 11:38:02;;;;;;;6.40;5.43;;;20.00;99.90;;;;;;10481057;28;20312;-72
2023/05/11 11:43:17;;;;;;;6.30;4.80;;;19.70;99.90;;;;;;10470566;28;20329;-71
2023/05/11 11:48:34;;;;;;;5.13;4.67;;;19.60;99.90;;;;;;10474907;28;20259;-71
2023/05/11 11:53:42;;;;;;;5.60;4.90;;;19.50;99.90;;;;;;10464800;28;20237;-71
2023/05/11 11:58:43;;;;;;;7.47;5.47;;;19.30;99.90;;;;;;10485839;28;20240;-71
2023/05/11 12:03:46;;;;;;;5.90;5.27;;;19.60;99.90;;;;;;10478623;28;20221;-71
2023/05/11 12:08:47;;;;;;;8.67;5.30;;;19.80;99.90;;;;;;10469903;28;20266;-71
2023/05/11 12:13:48;;;;;;;6.03;5.43;;;20.20;99.90;;;;;;10482580;28;20244;-71
2023/05/11 12:18:58;;;;;;;8.17;4.83;;;20.50;99.90;;;;;;10475756;28;20587;-71
2023/05/11 12:24:04;;;;;;;4.80;4.40;;;20.80;99.90;;;;;;10474043;28;20265;-71
2023/05/11 12:29:08;;;;;;;6.67;4.70;;;20.80;99.90;;;;;;10479740;28;20325;-71
2023/05/11 12:34:17;;;;;;;5.07;4.47;;;20.60;99.90;;;;;;10460735;28;20230;-70
2023/05/11 12:39:20;;;;;;;4.97;4.57;;;20.50;99.90;;;;;;10480950;28;20218;-72
2023/05/11 12:44:23;;;;;;;4.90;4.40;;;20.50;99.90;;;;;;10481091;28;20585;-71
2023/05/11 12:49:24;;;;;;;6.07;5.10;;;20.60;99.90;;;;;;10467527;28;20228;-71
2023/05/11 12:54:39;;;;;;;6.50;5.33;;;20.40;99.90;;;;;;10476097;28;20257;-72
2023/05/11 12:59:39;;;;;;;5.90;5.40;;;20.20;99.90;;;;;;10483821;28;20235;-74
2023/05/11 13:04:41;;;;;;;5.10;3.87;;;20.00;99.90;;;;;;10470541;28;20221;-73
2023/05/11 13:09:54;;;;;;;5.77;5.23;;;19.80;99.90;;;;;;10467099;28;20219;-73
2023/05/11 13:15:13;;;;;;;6.07;4.90;;;19.40;99.90;;;;;;10462158;28;20279;-72
2023/05/11 13:20:21;;;;;;;5.87;5.27;;;19.10;99.90;;;;;;10475818;28;20218;-73
2023/05/11 13:25:22;;;;;;;5.10;4.60;;;18.80;99.90;;;;;;10514765;28;20196;-73
2023/05/11 13:30:22;;;;;;;6.43;5.73;;;18.60;99.90;;;;;;10503476;28;20247;-73
2023/05/11 13:35:23;;;;;;;6.50;5.90;;;18.40;99.90;;;;;;10521787;28;20222;-72
2023/05/11 13:40:24;;;;;;;7.67;5.70;;;18.30;99.90;;;;;;10494668;28;21773;-74
2023/05/11 13:45:24;;;;;;;10.40;6.90;;;18.30;99.90;;;;;;10493011;28;20778;-73
2023/05/11 13:50:25;;;;;;;8.90;7.30;;;18.30;99.90;;;;;;10508288;28;20296;-73
2023/05/11 13:55:28;;;;;;;7.37;6.73;;;18.30;99.90;;;;;;10516950;28;20246;-72
2023/05/11 14:00:28;;;;;;;7.53;5.83;;;18.10;99.90;;;;;;10495070;28;20680;-73
2023/05/11 14:05:29;;;;;;;3.27;2.70;;;17.70;99.90;;;;;;10513908;28;20227;-72
2023/05/11 14:10:29;;;;;;;2.93;1.97;;;16.90;99.90;;;;;;10517987;28;20220;-72
2023/05/11 14:15:30;;;;;;;3.43;2.40;;;16.40;99.90;;;;;;10507983;28;20299;-72
2023/05/11 14:20:30;;;;;;;3.50;2.90;;;16.20;99.90;;;;;;10511785;28;20563;-73
2023/05/11 14:25:31;;;;;;;3.27;2.70;;;16.10;99.90;;;;;;10511670;28;20574;-71
2023/05/11 14:30:32;;;;;;;3.83;2.47;;;16.10;99.90;;;;;;10491350;28;20222;-72
2023/05/11 14:35:32;;;;;;;2.93;2.57;;;16.10;99.90;;;;;;10509546;28;20234;-72
2023/05/11 14:40:33;;;;;;;5.70;2.57;;;16.20;99.90;;;;;;10520167;28;20220;-72
2023/05/11 14:45:34;;;;;;;5.33;2.80;;;16.30;99.90;;;;;;10511505;28;20219;-71
2023/05/11 14:50:34;;;;;;;3.97;2.73;;;16.40;99.90;;;;;;10508369;28;20223;-71
2023/05/11 14:55:36;;;;;;;4.40;2.93;;;16.60;99.90;;;;;;10492963;28;20566;-71
2023/05/11 15:00:40;;;;;;;4.03;2.50;;;16.60;99.90;;;;;;10501011;28;20231;-70
2023/05/11 15:05:41;;;;;;;4.47;2.60;;;16.60;99.90;;;;;;10514961;28;20720;-72
2023/05/11 15:10:41;;;;;;;4.17;2.77;;;16.60;99.90;;;;;;10516040;28;20302;-72
2023/05/11 15:15:42;;;;;;;3.47;3.17;;;16.80;99.90;;;;;;10513406;28;20227;-72
2023/05/11 15:20:43;;;;;;;4.77;3.27;;;16.80;99.90;;;;;;10496960;28;20222;-71
2023/05/11 15:25:44;;;;;;;6.13;3.90;;;16.80;99.90;;;;;;10510118;28;20323;-71
2023/05/11 15:30:46;;;;;;;4.57;3.90;;;16.80;99.90;;;;;;10516080;28;20617;-71
2023/05/11 15:35:48;;;;;;;8.53;4.20;;;16.80;99.90;;;;;;10517894;28;20276;-71
2023/05/11 15:40:49;;;;;;;4.43;4.00;;;16.70;99.90;;;;;;10516354;28;20226;-71
2023/05/11 15:45:50;;;;;;;7.20;4.57;;;16.90;99.90;;;;;;10493228;28;20224;-71
2023/05/11 15:50:51;;;;;;;4.90;3.93;;;16.90;99.90;;;;;;10515655;28;20225;-71
2023/05/11 15:55:54;;;;;;;5.00;3.53;;;16.90;99.90;;;;;;10502709;28;20242;-70
2023/05/11 16:00:55;;;;;;;4.30;3.70;;;16.90;99.90;;;;;;10516730;28;20216;-70
2023/05/11 16:05:56;;;;;;;5.40;3.20;;;17.00;99.90;;;;;;10507400;28;20588;-71
2023/05/11 16:10:56;;;;;;;3.00;2.80;;;17.00;99.90;;;;;;10496107;28;20217;-71
2023/05/11 16:15:58;;;;;;;4.50;3.60;;;17.00;99.90;;;;;;10508894;28;20744;-72
2023/05/11 16:20:58;;;;;;;5.03;3.40;;;17.00;99.90;;;;;;10491213;28;20228;-72
2023/05/11 16:25:59;;;;;;;4.07;3.63;;;17.10;99.90;;;;;;10497091;28;20235;-71
2023/05/11 16:31:00;;;;;;;4.50;4.10;;;16.90;99.90;;;;;;10515878;28;20331;-72
2023/05/11 16:36:01;;;;;;;4.87;4.30;;;16.70;99.90;;;;;;10516140;28;20877;-71
2023/05/11 16:41:02;;;;;;;4.60;4.20;;;16.50;99.90;;;;;;10515809;28;20227;-71
2023/05/11 16:46:03;;;;;;;5.70;4.63;;;16.40;99.90;;;;;;10515144;28;20322;-71
2023/05/11 16:51:03;;;;;;;5.50;4.43;;;16.40;99.90;;;;;;10506477;28;20816;-71
2023/05/11 16:56:04;;;;;;;7.33;5.37;;;16.20;99.90;;;;;;10520265;28;20236;-72
2023/05/11 17:01:09;;;;;;;7.67;5.30;;;16.20;99.90;;;;;;10506385;28;20219;-72
2023/05/11 17:06:13;;;;;;;5.77;4.97;;;16.20;99.90;;;;;;10514044;28;20227;-72
2023/05/11 17:11:13;;;;;;;5.77;5.23;;;16.00;99.90;;;;;;10507689;28;20301;-73
2023/05/11 17:16:14;;;;;;;7.23;6.50;;;16.00;99.90;;;;;;10496137;28;20301;-71
2023/05/11 17:21:16;;;;;;;7.20;6.03;;;15.80;99.90;;;;;;10519730;28;20214;-73
2023/05/11 17:26:17;;;;;;;7.57;6.07;;;15.70;99.90;;;;;;10494655;28;20261;-72
2023/05/11 17:31:17;;;;;;;7.60;6.70;;;15.60;99.90;;;;;;10520473;28;20712;-71
2023/05/11 17:36:18;;;;;;;7.57;5.37;;;15.50;99.90;;;;;;10488984;28;20263;-71
2023/05/11 17:41:19;;;;;;;8.03;6.40;;;15.40;99.90;;;;;;10496563;28;20218;-71
2023/05/11 17:46:19;;;;;;;6.77;6.07;;;15.40;99.90;;;;;;10512163;28;20222;-72
2023/05/11 17:51:20;;;;;;;7.53;6.27;;;15.40;99.90;;;;;;10508116;28;20230;-70
2023/05/11 17:56:21;;;;;;;6.57;5.50;;;15.30;99.90;;;;;;10513101;28;20213;-72
2023/05/11 18:01:22;;;;;;;6.57;5.60;;;15.20;99.90;;;;;;10511561;28;20583;-72
2023/05/11 18:06:23;;;;;;;6.33;5.70;;;15.20;99.90;;;;;;10517826;28;20202;-72
2023/05/11 18:11:23;;;;;;;6.10;5.33;;;15.10;99.90;;;;;;10513345;28;20219;-71
2023/05/11 18:16:24;;;;;;;9.20;6.70;;;15.00;99.90;;;;;;10509807;28;20215;-71
2023/05/11 18:21:28;;;;;;;9.60;6.90;;;14.90;99.90;;;;;;10507396;28;20215;-70
2023/05/11 18:26:28;;;;;;;7.47;6.10;;;14.90;99.90;;;;;;10491749;28;20235;-71
2023/05/11 18:31:29;;;;;;;9.87;6.33;;;14.70;99.90;;;;;;10516769;28;20346;-71
2023/05/11 18:36:30;;;;;;;7.33;6.60;;;14.60;99.90;;;;;;10506833;28;20564;-72
2023/05/11 18:41:30;;;;;;;12.53;7.90;;;14.60;99.90;;;;;;10516283;28;20218;-71
2023/05/11 18:46:31;;;;;;;7.50;6.80;;;14.60;99.90;;;;;;10507070;28;20234;-71
2023/05/11 18:51:32;;;;;;;7.70;6.60;;;14.50;99.90;;;;;;10511809;28;20565;-70
2023/05/11 18:56:35;;;;;;;6.93;6.23;;;14.50;99.90;;;;;;10515817;28;20236;-71
2023/05/11 19:01:35;;;;;;;9.27;7.43;;;14.40;99.90;;;;;;10519921;28;20227;-72
2023/05/11 19:06:36;;;;;;;9.20;7.07;;;14.40;99.90;;;;;;10515477;28;20684;-72
2023/05/11 19:11:37;;;;;;;8.57;7.60;;;14.40;99.90;;;;;;10515986;28;20220;-71
2023/05/11 19:16:37;;;;;;;8.20;7.40;;;14.40;99.90;;;;;;10509245;28;20211;-71
2023/05/11 19:21:42;;;;;;;8.27;7.20;;;14.30;99.90;;;;;;10520363;28;20301;-71
2023/05/11 19:26:43;;;;;;;8.20;7.23;;;14.30;99.90;;;;;;10513695;28;20239;-71
2023/05/11 19:31:43;;;;;;;9.47;8.17;;;14.20;99.90;;;;;;10503749;28;20221;-71
2023/05/11 19:36:44;;;;;;;10.53;8.53;;;14.20;99.90;;;;;;10521800;28;20224;-72
2023/05/11 19:41:45;;;;;;;10.43;8.57;;;14.10;99.90;;;;;;10509897;28;20905;-71
2023/05/11 19:46:45;;;;;;;9.50;8.47;;;14.00;99.90;;;;;;10515283;28;20240;-71
2023/05/11 19:51:46;;;;;;;11.87;9.10;;;14.00;99.90;;;;;;10512401;28;20310;-71
2023/05/11 19:56:47;;;;;;;10.37;9.27;;;14.00;99.90;;;;;;10518304;28;20712;-71
2023/05/11 20:01:47;;;;;;;11.33;9.50;;;14.00;99.90;;;;;;10511590;28;20268;-71
2023/05/11 20:06:48;;;;;;;11.37;9.20;;;14.00;99.90;;;;;;10514850;28;20210;-71
2023/05/11 20:11:48;;;;;;;9.87;8.87;;;14.00;99.90;;;;;;10500368;28;20226;-72
2023/05/11 20:16:49;;;;;;;10.27;9.10;;;14.00;99.90;;;;;;10514574;28;20586;-71
2023/05/11 20:21:50;;;;;;;10.00;9.03;;;14.00;99.90;;;;;;10500571;28;20219;-70
2023/05/11 20:26:51;;;;;;;11.03;9.93;;;14.00;99.90;;;;;;10514547;28;20237;-71
2023/05/11 20:31:51;;;;;;;10.63;9.63;;;14.00;99.90;;;;;;10491796;28;20227;-71
2023/05/11 20:36:53;;;;;;;10.50;9.23;;;13.90;99.90;;;;;;10522255;28;20233;-71
2023/05/11 20:41:56;;;;;;;10.10;9.10;;;13.90;99.90;;;;;;10517935;28;20211;-70
2023/05/11 20:46:56;;;;;;;11.60;9.30;;;13.90;99.90;;;;;;10523364;28;20683;-70
2023/05/11 20:51:57;;;;;;;10.10;9.10;;;13.90;99.90;;;;;;10514050;28;20240;-71
2023/05/11 20:56:58;;;;;;;9.37;8.47;;;13.90;99.90;;;;;;10508304;28;20219;-71
2023/05/11 21:01:59;;;;;;;9.77;8.87;;;13.90;99.90;;;;;;10515402;28;20254;-71
2023/05/11 21:06:59;;;;;;;10.17;8.90;;;14.00;99.90;;;;;;10496553;28;20238;-72
2023/05/11 21:12:00;;;;;;;11.43;9.80;;;14.00;99.90;;;;;;10509409;28;20227;-71
2023/05/11 21:17:00;;;;;;;10.37;9.37;;;13.90;99.90;;;;;;10504084;28;20697;-71
2023/05/11 21:22:02;;;;;;;12.63;9.63;;;13.90;99.90;;;;;;10507432;28;20215;-72
2023/05/11 21:27:05;;;;;;;11.43;10.33;;;13.90;99.90;;;;;;10512185;28;20318;-72
2023/05/11 21:32:06;;;;;;;10.17;8.63;;;13.90;99.90;;;;;;10505832;28;20219;-73
2023/05/11 21:37:07;;;;;;;10.20;9.07;;;13.90;99.90;;;;;;10487742;28;20223;-71
2023/05/11 21:42:08;;;;;;;10.17;9.17;;;13.80;99.90;;;;;;10513701;28;20771;-71
2023/05/11 21:47:08;;;;;;;10.90;9.63;;;13.80;99.90;;;;;;10496749;28;20234;-70
2023/05/11 21:52:09;;;;;;;11.30;9.20;;;13.70;99.90;;;;;;10505805;28;20255;-71
2023/05/11 21:57:09;;;;;;;11.83;9.50;;;13.70;99.90;;;;;;10521469;28;20621;-70
2023/05/11 22:02:10;;;;;;;10.60;9.10;;;13.70;99.90;;;;;;10520753;28;20678;-71
2023/05/11 22:07:11;;;;;;;10.20;9.07;;;13.60;99.90;;;;;;10519432;28;20222;-70
2023/05/11 22:12:12;;;;;;;8.97;8.07;;;13.60;99.90;;;;;;10514508;28;20235;-71
2023/05/11 22:17:12;;;;;;;9.43;8.50;;;13.50;99.90;;;;;;10524077;28;20207;-71
2023/05/11 22:22:16;;;;;;;10.47;8.90;;;13.50;99.90;;;;;;10521023;28;20225;-71
2023/05/11 22:27:17;;;;;;;10.40;9.33;;;13.50;99.90;;;;;;10514523;28;20717;-70
2023/05/11 22:32:18;;;;;;;11.70;9.23;;;13.50;99.90;;;;;;10513323;28;20219;-71
2023/05/11 22:37:18;;;;;;;10.57;9.47;;;13.40;99.90;;;;;;10501754;28;20221;-70
2023/05/11 22:42:19;;;;;;;12.23;10.57;;;13.40;99.90;;;;;;10521037;28;20249;-71
2023/05/11 22:47:20;;;;;;;10.70;9.63;;;13.40;99.90;;;;;;10509172;28;20214;-71
2023/05/11 22:52:21;;;;;;;11.63;9.73;;;13.30;99.90;;;;;;10500328;28;20214;-71
2023/05/11 22:57:22;;;;;;;10.13;8.97;;;13.30;99.90;;;;;;10514625;28;20219;-70
2023/05/11 23:02:23;;;;;;;9.80;8.43;;;13.30;99.90;;;;;;10499385;28;20218;-71
2023/05/11 23:07:23;;;;;;;9.27;8.37;;;13.20;99.90;;;;;;10513831;28;20261;-71
2023/05/11 23:12:24;;;;;;;10.93;9.03;;;13.20;99.90;;;;;;10520806;28;20210;-71
2023/05/11 23:17:25;;;;;;;10.33;8.83;;;13.20;99.90;;;;;;10509695;28;20222;-72
2023/05/11 23:22:25;;;;;;;11.20;9.10;;;13.30;99.90;;;;;;10513796;28;20237;-71
2023/05/11 23:27:26;;;;;;;9.20;8.30;;;13.20;99.90;;;;;;10496150;28;20250;-71
2023/05/11 23:32:26;;;;;;;11.80;9.00;;;13.20;99.90;;;;;;10513421;28;20226;-71
2023/05/11 23:37:42;;;;;;;9.57;8.57;;;13.20;99.90;;;;;;10480089;28;20219;-71
2023/05/11 23:42:42;;;;;;;9.57;8.07;;;13.30;99.90;;;;;;10515607;28;20286;-71
2023/05/11 23:47:43;;;;;;;10.17;9.17;;;13.30;99.90;;;;;;10512800;28;20348;-70
2023/05/11 23:52:44;;;;;;;9.37;8.47;;;13.30;99.90;;;;;;10514670;28;20713;-71
2023/05/11 23:57:44;;;;;;;11.80;8.37;;;13.20;99.90;;;;;;10504615;28;20222;-70
